createdAt,value
2022-08-03T00:00:33.407Z,66.05
2022-08-03T00:01:33.508Z,66.05
2022-08-03T00:02:33.752Z,66.07
2022-08-03T00:03:33.756Z,66.04
2022-08-03T00:04:34.219Z,66.03
2022-08-03T00:05:34.011Z,66.02
2022-08-03T00:06:37.139Z,65.98
2022-08-03T00:07:34.414Z,66.00
2022-08-03T00:08:34.417Z,65.99
2022-08-03T00:09:36.006Z,66.02
2022-08-03T00:10:34.634Z,66.04
2022-08-03T00:11:34.756Z,65.99
2022-08-03T00:12:35.551Z,66.03
2022-08-03T00:13:35.007Z,66.07
2022-08-03T00:14:35.164Z,66.04
2022-08-03T00:15:35.264Z,66.11
2022-08-03T00:16:35.436Z,66.07
2022-08-03T00:17:53.645Z,66.00
2022-08-03T00:18:36.645Z,66.04
2022-08-03T00:19:35.794Z,66.02
2022-08-03T00:20:35.939Z,65.95
2022-08-03T00:21:36.036Z,65.94
2022-08-03T00:22:36.335Z,65.96
2022-08-03T00:23:52.573Z,65.97
2022-08-03T00:24:37.433Z,66.00
2022-08-03T00:25:36.563Z,65.99
2022-08-03T00:26:36.745Z,65.98
2022-08-03T00:27:36.972Z,65.92
2022-08-03T00:28:36.964Z,65.89
2022-08-03T00:29:59.980Z,65.92
2022-08-03T00:30:38.236Z,65.95
2022-08-03T00:31:45.023Z,65.98
2022-08-03T00:32:40.053Z,66.05
2022-08-03T00:33:58.753Z,66.10
2022-08-03T00:34:57.320Z,66.11
2022-08-03T00:35:50.901Z,66.21
2022-08-03T00:36:39.240Z,66.20
2022-08-03T00:37:40.897Z,66.22
2022-08-03T00:38:38.335Z,66.27
2022-08-03T00:39:38.342Z,66.24
2022-08-03T00:40:38.492Z,66.22
2022-08-03T00:41:38.591Z,66.18
2022-08-03T00:42:38.679Z,66.21
2022-08-03T00:43:38.991Z,66.08
2022-08-03T00:44:38.942Z,66.06
2022-08-03T00:45:39.050Z,66.39
2022-08-03T00:46:39.138Z,66.11
2022-08-03T00:47:39.331Z,66.08
2022-08-03T00:48:39.700Z,66.07
2022-08-03T00:49:39.575Z,66.12
2022-08-03T00:50:39.810Z,66.38
2022-08-03T00:51:39.811Z,66.37
2022-08-03T00:52:39.951Z,66.52
2022-08-03T00:53:40.199Z,66.49
2022-08-03T00:54:40.158Z,66.35
2022-08-03T00:55:40.295Z,66.73
2022-08-03T00:56:40.428Z,66.89
2022-08-03T00:57:41.548Z,66.73
2022-08-03T00:58:40.750Z,66.79
2022-08-03T00:59:40.812Z,66.88
2022-08-03T01:00:40.908Z,66.73
2022-08-03T01:01:41.093Z,66.86
2022-08-03T01:02:41.162Z,66.79
2022-08-03T01:03:41.375Z,66.75
2022-08-03T01:04:41.368Z,66.75
2022-08-03T01:05:41.518Z,66.80
2022-08-03T01:06:41.636Z,66.75
2022-08-03T01:07:41.740Z,66.85
2022-08-03T01:08:41.947Z,66.80
2022-08-03T01:09:42.101Z,66.79
2022-08-03T01:10:42.076Z,66.72
2022-08-03T01:12:09.232Z,67.11
2022-08-03T01:12:43.545Z,66.80
2022-08-03T01:14:03.814Z,66.80
2022-08-03T01:14:43.594Z,66.71
2022-08-03T01:15:42.716Z,66.90
2022-08-03T01:16:43.076Z,66.86
2022-08-03T01:17:42.990Z,66.93
2022-08-03T01:18:43.163Z,66.97
2022-08-03T01:19:43.438Z,67.04
2022-08-03T01:20:43.424Z,66.98
2022-08-03T01:21:43.485Z,66.83
2022-08-03T01:22:43.624Z,66.87
2022-08-03T01:23:43.875Z,66.87
2022-08-03T01:24:43.976Z,66.89
2022-08-03T01:25:44.176Z,66.83
2022-08-03T01:26:44.190Z,66.85
2022-08-03T01:27:44.282Z,66.97
2022-08-03T01:28:44.414Z,66.89
2022-08-03T01:29:44.512Z,66.97
2022-08-03T01:30:44.913Z,66.82
2022-08-03T01:32:53.660Z,66.71
2022-08-03T01:33:02.784Z,66.93
2022-08-03T01:33:45.975Z,67.09
2022-08-03T01:34:45.105Z,67.15
2022-08-03T01:35:45.293Z,67.25
2022-08-03T01:36:45.395Z,67.11
2022-08-03T01:37:45.483Z,67.34
2022-08-03T01:38:45.659Z,67.71
2022-08-03T01:39:45.761Z,67.69
2022-08-03T01:40:46.592Z,67.61
2022-08-03T01:41:46.152Z,67.61
2022-08-03T01:42:46.144Z,67.77
2022-08-03T01:44:26.355Z,67.67
2022-08-03T01:44:47.451Z,67.84
2022-08-03T01:45:46.552Z,67.94
2022-08-03T01:46:48.842Z,67.97
2022-08-03T01:47:46.833Z,68.05
2022-08-03T01:48:46.860Z,67.95
2022-08-03T01:49:47.090Z,67.91
2022-08-03T01:50:47.130Z,67.82
2022-08-03T01:52:03.262Z,67.89
2022-08-03T01:52:48.350Z,67.90
2022-08-03T01:53:47.500Z,67.95
2022-08-03T01:54:47.638Z,67.96
2022-08-03T01:55:47.739Z,67.92
2022-08-03T01:56:48.070Z,68.04
2022-08-03T01:58:06.087Z,68.25
2022-08-03T01:58:49.149Z,68.28
2022-08-03T01:59:48.277Z,68.25
2022-08-03T02:00:48.495Z,68.33
2022-08-03T02:02:28.473Z,68.38
2022-08-03T02:02:49.874Z,68.50
2022-08-03T02:04:00.077Z,68.53
2022-08-03T02:04:49.949Z,68.53
2022-08-03T02:05:54.127Z,68.60
2022-08-03T02:07:00.305Z,68.68
2022-08-03T02:07:50.436Z,68.67
2022-08-03T02:08:49.458Z,68.77
2022-08-03T02:09:49.631Z,68.78
2022-08-03T02:10:49.732Z,68.77
2022-08-03T02:11:49.861Z,68.81
2022-08-03T02:12:51.261Z,68.89
2022-08-03T02:13:50.275Z,68.92
2022-08-03T02:14:50.269Z,68.95
2022-08-03T02:15:50.367Z,68.96
2022-08-03T02:16:50.517Z,68.83
2022-08-03T02:17:50.636Z,68.87
2022-08-03T02:18:50.847Z,68.87
2022-08-03T02:19:50.886Z,68.81
2022-08-03T02:20:51.015Z,68.88
2022-08-03T02:21:56.392Z,68.75
2022-08-03T02:22:52.265Z,69.24
2022-08-03T02:23:51.455Z,69.28
2022-08-03T02:24:51.558Z,69.20
2022-08-03T02:25:51.663Z,69.22
2022-08-03T02:26:51.881Z,69.27
2022-08-03T02:27:51.945Z,69.46
2022-08-03T02:28:52.195Z,69.46
2022-08-03T02:29:52.319Z,69.58
2022-08-03T02:30:53.973Z,69.48
2022-08-03T02:31:52.427Z,69.74
2022-08-03T02:32:52.554Z,69.74
2022-08-03T02:33:52.882Z,69.82
2022-08-03T02:34:52.813Z,69.94
2022-08-03T02:35:52.933Z,69.95
2022-08-03T02:36:53.094Z,70.12
2022-08-03T02:37:53.193Z,70.09
2022-08-03T02:38:53.964Z,70.15
2022-08-03T02:39:53.514Z,70.01
2022-08-03T02:40:53.585Z,69.94
2022-08-03T02:41:53.732Z,69.86
2022-08-03T02:42:53.875Z,69.89
2022-08-03T02:44:05.983Z,69.83
2022-08-03T02:44:55.211Z,69.87
2022-08-03T02:45:54.252Z,70.08
2022-08-03T02:46:56.792Z,70.14
2022-08-03T02:47:54.952Z,69.92
2022-08-03T02:48:54.634Z,70.05
2022-08-03T02:49:54.805Z,70.15
2022-08-03T02:50:54.892Z,70.10
2022-08-03T02:51:55.011Z,70.34
2022-08-03T02:52:55.100Z,70.40
2022-08-03T02:53:55.194Z,70.57
2022-08-03T02:54:55.419Z,70.56
2022-08-03T02:55:55.453Z,70.64
2022-08-03T02:56:55.569Z,70.67
2022-08-03T02:57:55.702Z,70.74
2022-08-03T02:58:55.843Z,70.85
2022-08-03T02:59:56.064Z,70.88
2022-08-03T03:00:56.276Z,70.85
2022-08-03T03:01:56.260Z,71.03
2022-08-03T03:02:56.391Z,71.00
2022-08-03T03:03:56.560Z,70.94
2022-08-03T03:05:52.241Z,71.15
2022-08-03T03:05:57.957Z,71.09
2022-08-03T03:06:56.927Z,71.06
2022-08-03T03:07:57.040Z,71.04
2022-08-03T03:08:59.791Z,71.09
2022-08-03T03:09:57.466Z,71.21
2022-08-03T03:10:57.471Z,71.18
2022-08-03T03:11:57.587Z,71.19
2022-08-03T03:12:57.690Z,71.06
2022-08-03T03:13:57.817Z,71.03
2022-08-03T03:14:58.025Z,71.35
2022-08-03T03:15:58.168Z,71.42
2022-08-03T03:16:58.199Z,71.46
2022-08-03T03:17:58.358Z,71.54
2022-08-03T03:18:58.458Z,71.42
2022-08-03T03:19:58.615Z,71.48
2022-08-03T03:20:58.808Z,71.45
2022-08-03T03:21:58.848Z,71.55
2022-08-03T03:22:59.015Z,71.62
2022-08-03T03:23:59.170Z,71.56
2022-08-03T03:24:59.247Z,71.65
2022-08-03T03:25:59.457Z,71.81
2022-08-03T03:26:59.518Z,71.92
2022-08-03T03:27:59.637Z,71.95
2022-08-03T03:28:59.765Z,71.94
2022-08-03T03:29:59.914Z,72.04
2022-08-03T03:31:00.132Z,72.05
2022-08-03T03:32:00.236Z,72.00
2022-08-03T03:33:00.323Z,72.09
2022-08-03T03:34:00.452Z,72.07
2022-08-03T03:35:00.553Z,72.06
2022-08-03T03:36:00.752Z,72.04
2022-08-03T03:37:00.801Z,72.22
2022-08-03T03:38:00.923Z,72.23
2022-08-03T03:39:15.094Z,72.25
2022-08-03T03:40:02.195Z,72.24
2022-08-03T03:41:01.520Z,72.25
2022-08-03T03:42:01.455Z,72.46
2022-08-03T03:43:01.617Z,72.44
2022-08-03T03:44:01.701Z,72.48
2022-08-03T03:45:01.815Z,72.57
2022-08-03T03:46:02.123Z,72.52
2022-08-03T03:47:02.104Z,72.63
2022-08-03T03:48:02.174Z,72.83
2022-08-03T03:49:02.376Z,72.68
2022-08-03T03:50:02.451Z,72.76
2022-08-03T03:51:02.601Z,72.75
2022-08-03T03:52:02.756Z,72.79
2022-08-03T03:53:02.820Z,72.82
2022-08-03T03:54:02.991Z,72.94
2022-08-03T03:55:03.095Z,73.04
2022-08-03T03:56:03.264Z,73.08
2022-08-03T03:57:03.478Z,73.15
2022-08-03T03:58:03.521Z,73.16
2022-08-03T03:59:03.669Z,73.08
2022-08-03T04:00:03.787Z,73.06
2022-08-03T04:01:03.951Z,73.04
2022-08-03T04:02:04.041Z,73.00
2022-08-03T04:03:04.158Z,73.00
2022-08-03T04:04:04.270Z,72.92
2022-08-03T04:05:04.429Z,72.97
2022-08-03T04:06:04.658Z,73.09
2022-08-03T04:07:04.637Z,73.18
2022-08-03T04:08:04.794Z,73.16
2022-08-03T04:09:04.919Z,73.17
2022-08-03T04:10:07.916Z,73.17
2022-08-03T04:11:06.219Z,73.18
2022-08-03T04:12:05.325Z,73.27
2022-08-03T04:13:05.406Z,73.27
2022-08-03T04:14:05.556Z,73.29
2022-08-03T04:15:05.716Z,73.32
2022-08-03T04:16:05.976Z,73.31
2022-08-03T04:17:06.031Z,73.37
2022-08-03T04:18:06.095Z,73.44
2022-08-03T04:19:06.197Z,73.37
2022-08-03T04:20:06.294Z,73.48
2022-08-03T04:21:06.437Z,73.49
2022-08-03T04:22:06.758Z,73.45
2022-08-03T04:23:12.849Z,73.50
2022-08-03T04:24:07.845Z,73.51
2022-08-03T04:25:06.988Z,73.46
2022-08-03T04:26:07.083Z,73.35
2022-08-03T04:27:07.394Z,73.39
2022-08-03T04:28:29.745Z,73.26
2022-08-03T04:29:08.474Z,73.28
2022-08-03T04:30:07.611Z,73.24
2022-08-03T04:31:07.771Z,73.12
2022-08-03T04:32:08.015Z,73.04
2022-08-03T04:33:07.993Z,73.05
2022-08-03T04:34:08.143Z,72.95
2022-08-03T04:35:08.267Z,72.96
2022-08-03T04:36:08.344Z,72.95
2022-08-03T04:37:08.625Z,72.88
2022-08-03T04:38:08.604Z,72.80
2022-08-03T04:39:08.686Z,72.83
2022-08-03T04:40:08.845Z,72.74
2022-08-03T04:41:08.923Z,72.73
2022-08-03T04:42:09.368Z,72.66
2022-08-03T04:43:09.232Z,72.64
2022-08-03T04:44:09.317Z,72.66
2022-08-03T04:45:09.463Z,72.66
2022-08-03T04:46:10.542Z,72.60
2022-08-03T04:47:09.729Z,72.61
2022-08-03T04:48:09.841Z,72.66
2022-08-03T04:49:09.981Z,72.59
2022-08-03T04:50:12.994Z,72.93
2022-08-03T04:51:10.230Z,72.79
2022-08-03T04:52:10.583Z,72.66
2022-08-03T04:53:10.453Z,72.63
2022-08-03T04:54:10.569Z,72.65
2022-08-03T04:55:10.673Z,72.57
2022-08-03T04:56:10.792Z,72.54
2022-08-03T04:57:11.040Z,72.61
2022-08-03T04:58:12.080Z,72.48
2022-08-03T04:59:11.311Z,72.45
2022-08-03T05:00:11.292Z,72.47
2022-08-03T05:01:11.458Z,72.39
2022-08-03T05:02:11.707Z,72.25
2022-08-03T05:03:23.803Z,72.27
2022-08-03T05:04:12.887Z,72.19
2022-08-03T05:05:11.920Z,72.20
2022-08-03T05:06:12.073Z,72.24
2022-08-03T05:07:12.591Z,72.33
2022-08-03T05:08:12.298Z,71.89
2022-08-03T05:09:12.458Z,71.84
2022-08-03T05:10:16.027Z,72.07
2022-08-03T05:11:12.669Z,71.96
2022-08-03T05:12:12.758Z,71.87
2022-08-03T05:13:12.910Z,71.82
2022-08-03T05:14:13.086Z,71.70
2022-08-03T05:15:13.147Z,71.85
2022-08-03T05:16:13.277Z,71.92
2022-08-03T05:17:13.378Z,71.77
2022-08-03T05:18:14.379Z,71.83
2022-08-03T05:19:13.737Z,71.79
2022-08-03T05:20:13.816Z,72.31
2022-08-03T05:21:13.938Z,72.14
2022-08-03T05:22:14.308Z,72.34
2022-08-03T05:23:14.136Z,72.52
2022-08-03T05:24:14.298Z,72.62
2022-08-03T05:25:19.117Z,71.71
2022-08-03T05:26:15.549Z,71.95
2022-08-03T05:27:14.617Z,72.21
2022-08-03T05:28:14.776Z,71.87
2022-08-03T05:29:14.939Z,71.70
2022-08-03T05:30:30.701Z,70.88
2022-08-03T05:31:16.145Z,70.59
2022-08-03T05:32:15.287Z,70.34
2022-08-03T05:33:15.394Z,70.11
2022-08-03T05:34:15.565Z,69.74
2022-08-03T05:35:57.921Z,70.34
2022-08-03T05:36:16.801Z,69.14
2022-08-03T05:37:15.927Z,69.23
2022-08-03T05:38:23.665Z,69.13
2022-08-03T05:39:17.263Z,68.57
2022-08-03T05:40:16.358Z,68.85
2022-08-03T05:41:22.813Z,69.13
2022-08-03T05:42:17.811Z,69.59
2022-08-03T05:43:16.672Z,70.03
2022-08-03T05:44:16.822Z,69.54
2022-08-03T05:45:16.995Z,69.46
2022-08-03T05:46:17.043Z,68.42
2022-08-03T05:47:17.163Z,67.84
2022-08-03T05:48:17.264Z,67.50
2022-08-03T05:49:17.416Z,67.70
2022-08-03T05:50:17.574Z,67.61
2022-08-03T05:51:17.613Z,67.98
2022-08-03T05:52:18.248Z,67.74
2022-08-03T05:53:17.882Z,67.47
2022-08-03T05:54:17.963Z,66.85
2022-08-03T05:55:18.178Z,68.28
2022-08-03T05:56:18.285Z,66.78
2022-08-03T05:57:18.334Z,65.57
2022-08-03T05:58:18.431Z,65.33
2022-08-03T05:59:37.719Z,67.13
2022-08-03T06:00:19.780Z,66.86
2022-08-03T06:01:18.801Z,67.12
2022-08-03T06:02:18.902Z,66.57
2022-08-03T06:03:19.052Z,65.71
2022-08-03T06:04:19.263Z,66.58
2022-08-03T06:05:19.290Z,64.93
2022-08-03T06:06:19.451Z,65.26
2022-08-03T06:07:19.573Z,63.92
2022-08-03T06:08:19.670Z,64.45
2022-08-03T06:09:19.853Z,62.14
2022-08-03T06:10:36.427Z,64.35
2022-08-03T06:11:21.083Z,62.93
2022-08-03T06:12:20.572Z,63.66
2022-08-03T06:13:20.370Z,62.79
2022-08-03T06:14:20.569Z,63.61
2022-08-03T06:15:20.619Z,61.98
2022-08-03T06:16:20.753Z,61.61
2022-08-03T06:17:20.919Z,62.60
2022-08-03T06:18:22.960Z,62.16
2022-08-03T06:19:21.190Z,61.32
2022-08-03T06:20:21.303Z,60.40
2022-08-03T06:21:22.455Z,61.94
2022-08-03T06:22:21.619Z,62.23
2022-08-03T06:23:21.699Z,61.96
2022-08-03T06:24:21.940Z,61.96
2022-08-03T06:25:21.930Z,60.74
2022-08-03T06:26:22.019Z,61.70
2022-08-03T06:27:36.349Z,60.29
2022-08-03T06:28:52.583Z,61.10
2022-08-03T06:29:23.388Z,59.68
2022-08-03T06:30:22.519Z,61.38
2022-08-03T06:31:22.794Z,61.46
2022-08-03T06:32:22.812Z,59.93
2022-08-03T06:33:22.898Z,60.59
2022-08-03T06:34:34.055Z,59.64
2022-08-03T06:35:24.608Z,58.84
2022-08-03T06:36:23.551Z,57.57
2022-08-03T06:37:23.439Z,59.22
2022-08-03T06:38:23.553Z,59.48
2022-08-03T06:39:23.978Z,60.30
2022-08-03T06:40:24.402Z,58.92
2022-08-03T06:41:24.029Z,58.42
2022-08-03T06:42:24.217Z,59.03
2022-08-03T06:43:24.215Z,58.24
2022-08-03T06:44:24.307Z,57.87
2022-08-03T06:45:24.419Z,56.85
2022-08-03T06:46:24.582Z,56.57
2022-08-03T06:47:24.647Z,57.57
2022-08-03T06:48:24.799Z,56.90
2022-08-03T06:49:24.971Z,55.55
2022-08-03T06:50:26.278Z,55.18
2022-08-03T06:52:05.154Z,53.61
2022-08-03T06:52:38.244Z,54.06
2022-08-03T06:53:26.341Z,55.52
2022-08-03T06:54:25.487Z,55.67
2022-08-03T06:55:25.625Z,54.10
2022-08-03T06:56:25.767Z,52.61
2022-08-03T06:57:25.826Z,52.60
2022-08-03T06:58:25.946Z,52.82
2022-08-03T07:00:09.304Z,55.69
2022-08-03T07:00:27.187Z,55.59
2022-08-03T07:01:26.460Z,54.12
2022-08-03T07:02:28.492Z,55.33
2022-08-03T07:03:26.515Z,54.89
2022-08-03T07:04:26.618Z,54.85
2022-08-03T07:05:26.727Z,54.63
2022-08-03T07:06:26.893Z,54.33
2022-08-03T07:07:26.999Z,51.63
2022-08-03T07:08:33.388Z,49.01
2022-08-03T07:09:28.154Z,49.00
2022-08-03T07:10:27.299Z,51.41
2022-08-03T07:11:27.477Z,51.06
2022-08-03T07:12:27.557Z,52.53
2022-08-03T07:13:27.665Z,49.60
2022-08-03T07:14:27.786Z,51.81
2022-08-03T07:15:54.494Z,52.33
2022-08-03T07:16:29.156Z,49.06
2022-08-03T07:17:28.173Z,47.72
2022-08-03T07:18:29.885Z,47.51
2022-08-03T07:19:28.375Z,50.04
2022-08-03T07:20:32.301Z,48.10
2022-08-03T07:21:28.586Z,49.35
2022-08-03T07:22:28.910Z,49.50
2022-08-03T07:23:28.847Z,49.14
2022-08-03T07:24:29.011Z,48.43
2022-08-03T07:25:29.151Z,49.24
2022-08-03T07:26:29.263Z,48.65
2022-08-03T07:27:29.527Z,47.22
2022-08-03T07:28:29.484Z,46.93
2022-08-03T07:29:29.594Z,48.12
2022-08-03T07:30:30.724Z,47.92
2022-08-03T07:31:34.416Z,49.60
2022-08-03T07:32:30.044Z,47.78
2022-08-03T07:33:30.105Z,47.59
2022-08-03T07:34:30.176Z,50.51
2022-08-03T07:35:30.292Z,49.18
2022-08-03T07:36:30.430Z,48.66
2022-08-03T07:37:30.730Z,47.81
2022-08-03T07:38:30.719Z,50.07
2022-08-03T07:39:30.851Z,48.53
2022-08-03T07:40:32.061Z,48.18
2022-08-03T07:41:31.043Z,44.95
2022-08-03T07:42:31.315Z,45.03
2022-08-03T07:43:31.399Z,48.24
2022-08-03T07:44:31.398Z,49.28
2022-08-03T07:45:31.506Z,46.67
2022-08-03T07:46:31.623Z,47.14
2022-08-03T07:47:35.020Z,45.51
2022-08-03T07:48:31.854Z,44.55
2022-08-03T07:49:32.016Z,45.11
2022-08-03T07:50:32.113Z,45.74
2022-08-03T07:51:32.216Z,46.63
2022-08-03T07:52:32.423Z,48.39
2022-08-03T07:53:32.572Z,46.27
2022-08-03T07:54:33.563Z,45.70
2022-08-03T07:55:32.810Z,45.86
2022-08-03T07:56:32.845Z,46.23
2022-08-03T07:57:33.000Z,46.25
2022-08-03T07:58:33.227Z,46.70
2022-08-03T07:59:56.444Z,47.66
2022-08-03T08:00:34.305Z,46.97
2022-08-03T08:01:33.446Z,47.92
2022-08-03T08:02:33.761Z,46.82
2022-08-03T08:03:52.431Z,46.96
2022-08-03T08:04:34.796Z,49.26
2022-08-03T08:05:33.889Z,47.06
2022-08-03T08:06:34.023Z,49.26
2022-08-03T08:07:34.182Z,46.56
2022-08-03T08:08:34.381Z,46.29
2022-08-03T08:09:34.351Z,46.08
2022-08-03T08:10:34.504Z,48.49
2022-08-03T08:11:39.674Z,50.40
2022-08-03T08:12:35.702Z,45.91
2022-08-03T08:13:34.809Z,45.55
2022-08-03T08:14:34.928Z,45.02
2022-08-03T08:15:35.061Z,45.02
2022-08-03T08:16:35.220Z,46.53
2022-08-03T08:17:35.272Z,44.53
2022-08-03T08:18:35.375Z,44.07
2022-08-03T08:19:36.769Z,46.21
2022-08-03T08:20:37.930Z,45.67
2022-08-03T08:21:53.105Z,43.81
2022-08-03T08:22:36.934Z,43.04
2022-08-03T08:23:43.201Z,44.38
2022-08-03T08:24:37.373Z,43.25
2022-08-03T08:25:36.309Z,42.89
2022-08-03T08:26:36.417Z,43.00
2022-08-03T08:28:30.435Z,46.25
2022-08-03T08:28:37.647Z,42.96
2022-08-03T08:29:36.938Z,45.50
2022-08-03T08:30:37.928Z,41.32
2022-08-03T08:31:37.079Z,42.17
2022-08-03T08:32:37.201Z,41.98
2022-08-03T08:34:01.506Z,43.28
2022-08-03T08:34:38.468Z,42.59
2022-08-03T08:35:37.558Z,44.80
2022-08-03T08:36:37.716Z,43.37
2022-08-03T08:37:37.771Z,44.80
2022-08-03T08:38:37.867Z,42.69
2022-08-03T08:39:38.037Z,42.80
2022-08-03T08:40:38.192Z,41.89
2022-08-03T08:41:38.288Z,41.96
2022-08-03T08:42:40.305Z,43.11
2022-08-03T08:43:39.557Z,43.42
2022-08-03T08:44:38.657Z,41.32
2022-08-03T08:45:38.877Z,43.12
2022-08-03T08:46:38.894Z,41.42
2022-08-03T08:47:50.942Z,41.63
2022-08-03T08:48:40.087Z,41.54
2022-08-03T08:49:39.323Z,41.86
2022-08-03T08:50:39.472Z,42.07
2022-08-03T08:51:50.556Z,41.70
2022-08-03T08:52:40.578Z,41.17
2022-08-03T08:53:39.715Z,41.69
2022-08-03T08:54:39.881Z,41.53
2022-08-03T08:55:59.250Z,41.72
2022-08-03T08:56:41.235Z,42.66
2022-08-03T08:57:43.134Z,41.44
2022-08-03T08:58:40.353Z,41.45
2022-08-03T08:59:48.440Z,42.11
2022-08-03T09:00:41.662Z,41.78
2022-08-03T09:01:40.743Z,41.65
2022-08-03T09:02:40.905Z,41.47
2022-08-03T09:03:41.015Z,41.53
2022-08-03T09:04:41.132Z,41.59
2022-08-03T09:05:55.430Z,41.41
2022-08-03T09:06:53.686Z,42.20
2022-08-03T09:07:42.443Z,42.01
2022-08-03T09:08:41.583Z,41.72
2022-08-03T09:10:10.627Z,42.56
2022-08-03T09:10:42.828Z,42.54
2022-08-03T09:11:53.726Z,41.91
2022-08-03T09:12:43.252Z,43.18
2022-08-03T09:13:42.210Z,41.88
2022-08-03T09:15:00.749Z,41.37
2022-08-03T09:15:59.083Z,41.18
2022-08-03T09:16:43.692Z,43.46
2022-08-03T09:17:43.964Z,41.37
2022-08-03T09:18:42.784Z,40.34
2022-08-03T09:19:42.933Z,41.17
2022-08-03T09:20:44.055Z,40.39
2022-08-03T09:21:43.191Z,39.76
2022-08-03T09:22:43.410Z,38.84
2022-08-03T09:24:00.649Z,39.06
2022-08-03T09:24:44.580Z,39.05
2022-08-03T09:25:43.722Z,40.07
2022-08-03T09:26:44.021Z,38.22
2022-08-03T09:27:44.047Z,38.52
2022-08-03T09:29:00.519Z,39.28
2022-08-03T09:29:45.290Z,40.03
2022-08-03T09:30:44.444Z,40.63
2022-08-03T09:31:45.371Z,38.62
2022-08-03T09:32:44.740Z,38.06
2022-08-03T09:33:44.842Z,39.01
2022-08-03T09:34:44.959Z,38.33
2022-08-03T09:35:53.545Z,39.47
2022-08-03T09:36:46.423Z,39.98
2022-08-03T09:38:12.723Z,38.12
2022-08-03T09:38:46.418Z,38.81
2022-08-03T09:39:45.533Z,40.09
2022-08-03T09:40:45.642Z,39.08
2022-08-03T09:41:45.763Z,39.26
2022-08-03T09:42:45.977Z,38.63
2022-08-03T09:43:45.991Z,38.35
2022-08-03T09:44:46.120Z,38.44
2022-08-03T09:45:46.236Z,38.73
2022-08-03T09:46:46.355Z,40.64
2022-08-03T09:47:46.615Z,39.56
2022-08-03T09:48:46.615Z,38.60
2022-08-03T09:49:46.715Z,38.88
2022-08-03T09:50:58.524Z,38.99
2022-08-03T09:52:31.432Z,37.93
2022-08-03T09:52:49.372Z,37.73
2022-08-03T09:53:51.497Z,37.77
2022-08-03T09:54:48.336Z,38.13
2022-08-03T09:56:34.857Z,38.33
2022-08-03T09:56:48.566Z,38.60
2022-08-03T09:57:47.712Z,38.05
2022-08-03T09:58:47.944Z,38.67
2022-08-03T09:59:47.994Z,38.39
2022-08-03T10:00:48.257Z,38.53
2022-08-03T10:01:48.339Z,38.96
2022-08-03T10:02:48.371Z,38.92
2022-08-03T10:04:03.579Z,39.06
2022-08-03T10:04:49.644Z,38.97
2022-08-03T10:05:48.889Z,39.00
2022-08-03T10:06:48.872Z,38.84
2022-08-03T10:07:49.031Z,38.91
2022-08-03T10:08:49.130Z,40.02
2022-08-03T10:09:49.230Z,39.24
2022-08-03T10:10:49.551Z,38.46
2022-08-03T10:11:49.501Z,37.09
2022-08-03T10:12:49.629Z,37.40
2022-08-03T10:13:49.763Z,37.65
2022-08-03T10:14:49.870Z,37.70
2022-08-03T10:16:23.181Z,37.88
2022-08-03T10:16:51.248Z,37.93
2022-08-03T10:17:50.228Z,38.21
2022-08-03T10:18:50.341Z,38.78
2022-08-03T10:19:50.498Z,38.81
2022-08-03T10:20:50.633Z,36.66
2022-08-03T10:21:50.769Z,37.09
2022-08-03T10:22:50.897Z,37.08
2022-08-03T10:23:50.985Z,36.51
2022-08-03T10:24:51.148Z,36.78
2022-08-03T10:25:51.296Z,36.48
2022-08-03T10:26:51.395Z,36.39
2022-08-03T10:27:51.636Z,36.84
2022-08-03T10:28:51.632Z,36.49
2022-08-03T10:29:51.725Z,39.20
2022-08-03T10:30:51.885Z,37.84
2022-08-03T10:31:54.697Z,37.97
2022-08-03T10:32:53.213Z,36.00
2022-08-03T10:33:53.323Z,36.30
2022-08-03T10:35:00.137Z,38.04
2022-08-03T10:35:53.483Z,37.15
2022-08-03T10:36:52.613Z,36.25
2022-08-03T10:37:56.678Z,36.19
2022-08-03T10:38:53.404Z,36.78
2022-08-03T10:39:53.024Z,36.63
2022-08-03T10:40:57.149Z,36.98
2022-08-03T10:41:54.266Z,37.04
2022-08-03T10:42:53.453Z,37.30
2022-08-03T10:43:53.650Z,37.71
2022-08-03T10:44:53.660Z,37.89
2022-08-03T10:45:53.783Z,37.71
2022-08-03T10:46:53.893Z,37.72
2022-08-03T10:47:54.082Z,37.99
2022-08-03T10:48:54.336Z,37.76
2022-08-03T10:49:54.303Z,37.92
2022-08-03T10:50:54.399Z,36.96
2022-08-03T10:51:54.580Z,36.66
2022-08-03T10:52:54.639Z,37.07
2022-08-03T10:53:55.839Z,37.24
2022-08-03T10:54:54.919Z,37.47
2022-08-03T10:55:55.017Z,37.33
2022-08-03T10:56:55.167Z,37.78
2022-08-03T10:57:58.719Z,37.01
2022-08-03T10:58:56.941Z,37.80
2022-08-03T10:59:55.467Z,36.73
2022-08-03T11:00:55.691Z,36.91
2022-08-03T11:02:00.288Z,37.07
2022-08-03T11:02:56.865Z,39.88
2022-08-03T11:03:56.163Z,35.67
2022-08-03T11:04:57.785Z,36.52
2022-08-03T11:05:56.296Z,37.07
2022-08-03T11:06:56.434Z,35.85
2022-08-03T11:07:56.584Z,35.72
2022-08-03T11:08:56.814Z,35.27
2022-08-03T11:09:56.826Z,35.85
2022-08-03T11:10:56.953Z,34.24
2022-08-03T11:11:57.053Z,36.54
2022-08-03T11:12:57.212Z,34.16
2022-08-03T11:13:57.483Z,36.25
2022-08-03T11:14:57.442Z,35.21
2022-08-03T11:15:59.994Z,35.26
2022-08-03T11:16:58.719Z,35.58
2022-08-03T11:17:57.822Z,36.42
2022-08-03T11:18:58.262Z,35.15
2022-08-03T11:19:58.690Z,36.54
2022-08-03T11:20:58.212Z,37.78
2022-08-03T11:21:58.322Z,36.05
2022-08-03T11:22:58.409Z,35.72
2022-08-03T11:24:05.649Z,36.29
2022-08-03T11:24:59.802Z,36.01
2022-08-03T11:25:58.748Z,38.09
2022-08-03T11:27:01.927Z,37.65
2022-08-03T11:27:59.967Z,36.39
2022-08-03T11:28:59.117Z,35.95
2022-08-03T11:29:59.245Z,35.05
2022-08-03T11:30:59.506Z,34.42
2022-08-03T11:31:59.466Z,35.72
2022-08-03T11:32:59.556Z,36.95
2022-08-03T11:33:59.715Z,35.78
2022-08-03T11:34:59.845Z,34.41
2022-08-03T11:36:00.241Z,34.58
2022-08-03T11:37:00.064Z,34.29
2022-08-03T11:38:03.163Z,34.48
2022-08-03T11:39:01.317Z,35.41
2022-08-03T11:40:02.582Z,34.70
2022-08-03T11:41:00.731Z,34.57
2022-08-03T11:42:00.712Z,33.78
2022-08-03T11:43:00.852Z,34.42
2022-08-03T11:44:01.105Z,34.59
2022-08-03T11:45:01.095Z,34.90
2022-08-03T11:46:01.271Z,34.73
2022-08-03T11:47:01.450Z,34.83
2022-08-03T11:48:01.481Z,34.99
2022-08-03T11:49:05.278Z,35.20
2022-08-03T11:50:02.746Z,35.32
2022-08-03T11:51:01.887Z,35.56
2022-08-03T11:52:01.996Z,35.05
2022-08-03T11:53:02.090Z,35.40
2022-08-03T11:54:02.219Z,35.93
2022-08-03T11:55:02.340Z,36.26
2022-08-03T11:56:02.447Z,36.57
2022-08-03T11:57:02.747Z,36.95
2022-08-03T11:59:01.152Z,37.09
2022-08-03T11:59:20.723Z,37.08
2022-08-03T12:00:03.957Z,36.92
2022-08-03T12:01:03.155Z,36.27
2022-08-03T12:02:03.345Z,36.29
2022-08-03T12:03:03.420Z,36.37
2022-08-03T12:04:03.467Z,35.84
2022-08-03T12:05:03.562Z,36.00
2022-08-03T12:06:03.735Z,35.27
2022-08-03T12:07:03.959Z,35.01
2022-08-03T12:08:06.660Z,35.06
2022-08-03T12:09:04.090Z,36.62
2022-08-03T12:10:04.224Z,36.25
2022-08-03T12:11:04.393Z,34.90
2022-08-03T12:12:04.604Z,34.85
2022-08-03T12:13:04.634Z,35.99
2022-08-03T12:14:46.369Z,37.01
2022-08-03T12:15:05.910Z,36.02
2022-08-03T12:16:05.042Z,34.52
2022-08-03T12:17:05.240Z,35.38
2022-08-03T12:18:05.281Z,34.54
2022-08-03T12:19:06.408Z,34.97
2022-08-03T12:20:05.551Z,34.85
2022-08-03T12:21:05.642Z,33.80
2022-08-03T12:22:05.981Z,32.63
2022-08-03T12:23:05.990Z,33.84
2022-08-03T12:24:06.050Z,33.31
2022-08-03T12:25:06.150Z,33.56
2022-08-03T12:26:06.311Z,34.56
2022-08-03T12:27:06.460Z,32.90
2022-08-03T12:28:06.501Z,33.61
2022-08-03T12:29:07.640Z,33.77
2022-08-03T12:30:06.780Z,34.41
2022-08-03T12:31:06.869Z,34.98
2022-08-03T12:32:07.100Z,34.58
2022-08-03T12:33:07.198Z,34.88
2022-08-03T12:34:07.188Z,34.47
2022-08-03T12:35:07.338Z,34.77
2022-08-03T12:36:07.447Z,34.62
2022-08-03T12:37:18.957Z,34.56
2022-08-03T12:38:08.644Z,37.25
2022-08-03T12:39:07.770Z,34.74
2022-08-03T12:40:10.791Z,33.87
2022-08-03T12:41:08.043Z,34.68
2022-08-03T12:42:08.306Z,35.76
2022-08-03T12:43:08.418Z,34.86
2022-08-03T12:44:08.445Z,32.76
2022-08-03T12:45:08.546Z,32.90
2022-08-03T12:46:08.687Z,34.07
2022-08-03T12:47:09.001Z,34.37
2022-08-03T12:48:08.920Z,34.38
2022-08-03T12:49:09.104Z,33.01
2022-08-03T12:50:09.205Z,33.03
2022-08-03T12:51:09.305Z,33.06
2022-08-03T12:52:09.531Z,33.37
2022-08-03T12:53:09.514Z,35.16
2022-08-03T12:54:09.679Z,35.70